Terminal Aerodrome Forecast
Issued by NWS

Home | Current Version | Previous Version | Text Only | Print | Product List | Glossary On
Versions: 1 2 3 4 5 6 7 8 9 10 11 12 13 14 15 16 17 18 19
000
FTUS46 KLOX 191100
TAFPRB
TAF
KPRB 191135Z 1912/2012 23003KT P6SM OVC008
     FM191600 VRB03KT P6SM OVC015
     FM191800 VRB03KT P6SM SCT025
     FM192200 19002KT P6SM SKC
     FM200300 VRB03KT P6SM BKN025=

USA.gov is the U.S. government's official web portal to all federal, state and local government web resources and services.